Sierra Nevada Aquatic Research Lab (SNARL) Reserve, California Weather observations

Data are for 10 minute period ending at time listed.
 Day   Time   Solar   Ave.   Ave.  Ave.  Vector  Max.   Baro.   Total    
  of    of     Rad.   Air    Rel.  Wind   Wind   Wind  Press.  Precip.   
Year   Day            Temp.  Hum.  Speed  Dir.   Gust                    
2017   (PST)  Kw/m2    F      %     mph   deg.    mph    mb.     in.     
-------------------------------------------------------------------------
  50    5:30   0.00   18.5    93    2.8   160     6.3   772.6    0.00 
  50    5:40   0.00   18.2    94    3.8    53     8.6   772.7    0.00 
  50    5:50   0.00   19.0    94    2.5   152    10.0   772.6    0.00 
  50    6:00   0.00   21.9    96    3.6    50    11.4   772.7    0.00 
  50    6:10   0.00   21.3    94    3.2    50     6.6   773.0    0.00 
  50    6:20   0.00   21.4    95    5.8   205    13.0   772.9    0.00 
  50    6:30   0.00   24.0    92    6.7    56    11.9   772.9    0.00 
  50    6:40   0.00   22.4    90    3.0     3     7.6   773.2    0.00 
  50    6:50   0.00   23.0    90    4.5    56    11.2   773.2    0.00 
  50    7:00   0.01   21.9    88    3.9    43     8.6   773.5    0.00 
  50    7:10   0.05   21.4    87    4.4    13     8.8   773.7    0.00 
  50    7:20   0.06   22.9    84    3.9   270     7.8   773.8    0.00 
  50    7:30   0.09   23.9    78    3.6   210     8.6   774.0    0.00 
  50    7:40   0.14   25.8    77    4.6     4     8.3   774.4    0.00 
  50    7:50   0.18   30.7    66    3.5    99    12.1   774.6    0.00 
  50    8:00   0.23   31.4    64    4.4   230    14.5   774.7    0.00 
  50    8:10   0.26   38.0    48   12.7   215    21.0   774.7    0.01 
  50    8:20   0.32   39.3    46   12.4   225    22.7   775.1    0.00 
  50    8:30   0.34   38.6    48    8.8   211    16.7   775.3    0.00 
  50    8:40   0.38   34.4    58    5.0    52    10.7   775.3    0.00 
  50    8:50   0.41   31.9    63    7.7    35    12.1   775.3    0.00 
  50    9:00   0.46   31.6    64    4.6    50    12.7   775.4    0.00 
  50    9:10   0.48   33.8    58    2.9    52     6.5   775.7    0.00 
  50    9:20   0.51   34.3    58    2.6    38     6.6   775.6    0.00 
  50    9:30   0.53   38.9    50    2.5    24     8.0   775.7    0.00 
  50    9:40   0.55   37.9    52    5.0    47     8.6   775.9    0.00 
  50    9:50   0.58   38.8    51    2.1    62     5.5   775.9    0.00 
  50   10:00   0.60   37.6    54    5.1    22     8.3   776.2    0.00 
  50   10:10   0.62   35.9    57    4.5    62     9.9   776.2    0.00 
  50   10:20   0.64   38.1    52    9.8   227    25.5   776.1    0.00 
  50   10:30   0.66   39.7    49    2.5    62     6.9   776.2    0.00 
  50   10:40   0.68   41.1    48    4.3    70    11.6   776.3    0.00 
  50   10:50   0.69   39.7    51    7.5   116    12.6   776.4    0.00 
  50   11:00   0.71   39.8    52    6.1   127    10.6   776.5    0.00 
  50   11:10   0.72   40.9    50    7.6   122    10.0   776.3    0.00 
  50   11:20   0.73   38.8    54    6.2    86     9.7   776.4    0.00 
  50   11:30   0.74   39.1    55    4.8    32     9.0   776.3    0.00 
  50   11:40   0.75   40.4    51    4.1    15     8.6   776.6    0.00 
  50   11:50   0.72   41.5    48    4.0   106     8.3   776.6    0.00 
  50   12:00   0.79   41.9    44   11.3   222    20.5   776.4    0.00 
  50   12:10   0.82   42.5    44    6.5   160    14.7   776.5    0.00 
  50   12:20   0.80   43.4    44    3.2    64     7.4   776.6    0.00 
  50   12:30   0.76   43.9    44    3.8    20     6.5   776.5    0.00 
  50   12:40   0.74   44.0    43    2.2    89     5.7   776.4    0.00 
  50   12:50   0.70   44.1    41    7.4   215    14.2   776.4    0.00 
  50   13:00   0.74   42.5    44    8.7   177    17.0   776.4    0.00 
  50   13:10   0.72   41.7    46    7.4   206    14.2   776.4    0.00 
  50   13:20   0.72   43.7    42    8.9   218    14.6   776.4    0.00 
  50   13:30   0.71   42.4    45    6.1   157    17.4   776.3    0.00 
  50   13:40   0.69   42.7    43   13.1   221    21.5   776.1    0.00 
  50   13:50   0.67   42.6    42   13.8   226    20.8   776.2    0.00 
  50   14:00   0.64   42.3    43    9.6   196    19.1   776.3    0.00 
  50   14:10   0.59   43.5    40   13.8   226    25.6   776.2    0.00 
  50   14:20   0.49   41.8    46    8.9   154    14.4   776.1    0.00 
  50   14:30   0.48   41.5    46    5.0   141     8.6   776.2    0.00 
  50   14:40   0.42   42.5    45    4.9    96    10.4   776.3    0.00 
  50   14:50   0.37   40.2    51    8.4   122    11.1   776.3    0.00 
  50   15:00   0.38   39.7    52    8.5   114    10.4   776.4    0.00 
  50   15:10   0.32   40.2    51    4.8   106     9.7   776.4    0.00 
  50   15:20   0.26   39.6    52   11.3   114    17.2   776.4    0.00 
  50   15:30   0.18   38.0    58   14.2   127    18.0   776.4    0.00 
  50   15:40   0.14   37.8    63   14.4   126    17.0   776.5    0.00 
  50   15:50   0.17   38.3    64   13.3   127    15.3   776.6    0.00 
  50   16:00   0.12   38.4    67   11.4   151    14.8   776.7    0.00 
  50   16:10   0.12   38.8    60    6.3   245    12.3   777.0    0.00 
  50   16:20   0.12   37.6    66    7.9   261    14.0   777.1    0.00 
  50   16:30   0.08   37.4    68    4.0   276    10.0   777.3    0.00 
  50   16:40   0.06   36.9    70    4.8   292     9.4   777.5    0.00 
  50   16:50   0.05   35.9    74    4.5   276     8.6   777.7    0.00 
  50   17:00   0.03   35.7    75    2.3   183     4.2   777.9    0.00 
  50   17:10   0.03   36.1    73    1.7   263     3.7   778.0    0.00 
  50   17:20   0.02   35.9    75    2.0   107     3.7   777.8    0.00 
  50   17:30   0.01   35.6    77    4.1   141     8.6   777.8    0.00 
  50   17:40   0.00   35.8    78    9.0   101    12.6   777.8    0.00 
  50   17:50   0.00   34.8    78    8.3   102    12.8   777.9    0.00 
  50   18:00   0.00   34.6    77    8.4   109    14.1   778.1    0.00 
  50   18:10   0.00   34.4    79    3.6    37     8.0   778.2    0.00 
  50   18:20   0.00   34.0    80    2.7    43     4.9   778.1    0.00 
  50   18:30   0.00   34.1    80    5.7    89     9.9   778.1    0.00 
  50   18:40   0.00   33.0    83    4.6    86    10.6   778.5    0.00 
  50   18:50   0.00   32.3    86    2.0    94     6.5   778.6    0.00 
  50   19:00   0.00   32.4    85    4.0    89     9.3   778.9    0.00 
  50   19:10   0.00   31.9    87    2.4   117     5.8   779.0    0.00 
  50   19:20   0.00   32.1    86    2.3   147     4.4   779.0    0.00 
  50   19:30   0.00   31.8    86    3.6    51     7.8   779.1    0.00 
  50   19:40   0.00   32.4    85    7.1   104    10.5   779.2    0.00 
  50   19:50   0.00   33.4    82    7.6   114    11.0   779.3    0.00 
  50   20:00   0.00   33.6    80    4.5    97    10.1   779.4    0.00 
  50   20:10   0.00   33.4    81    3.6   358     6.9   779.7    0.00 
  50   20:20   0.00   33.3    82    6.5   125    13.1   779.4    0.00 
  50   20:30   0.00   33.5    84    4.6    35    10.2   779.7    0.00 
  50   20:40   0.00   33.2    84    3.3   158     6.6   779.8    0.00 
  50   20:50   0.00   32.7    86    3.2   208     8.7   779.7    0.00 
  50   21:00   0.00   32.9    86    3.9    96     6.0   780.0    0.00 
  50   21:10   0.00   32.4    88    1.3    27     3.0   780.3    0.00 
  50   21:20   0.00   32.3    88    1.5   293     5.1   780.3    0.00 
  50   21:30   0.00   31.3    87    3.4   199     7.7   780.5    0.00 
  50   21:40   0.00   30.9    89    3.3   203     6.9   780.6    0.00 
  50   21:50   0.00   30.9    87    2.2   210     4.2   780.6    0.00 
  50   22:00   0.00   30.5    88    2.7   163     5.2   780.4    0.00 
  50   22:10   0.00   30.5    89    2.4   343     4.2   780.5    0.00 
  50   22:20   0.00   30.2    89    3.0   298     4.9   781.0    0.00 
  50   22:30   0.00   30.9    88    3.5   241     5.8   781.1    0.00 
  50   22:40   0.00   31.0    89    3.8   205    10.6   780.9    0.00 
  50   22:50   0.00   31.5    89    2.0   324     3.4   781.0    0.00 
  50   23:00   0.00   31.1    88    2.9   126     6.0   781.0    0.00 
  50   23:10   0.00   31.1    90    2.5    93     4.7   781.0    0.00 
  50   23:20   0.00   31.4    90    3.4    48     7.9   780.7    0.00 
  50   23:30   0.00   31.2    90    4.3    46     8.6   781.0    0.00 
  50   23:40   0.00   30.6    90    4.6   111     8.9   781.4    0.00 
  50   23:50   0.00   30.2    92    7.5   174    12.6   781.4    0.00 
  51    0:00   0.00   33.1    84    5.2   115    11.5   781.1    0.00 
  51    0:10   0.00   33.2    83    3.7    89     9.1   781.1    0.00 
  51    0:20   0.00   31.7    86    4.7    84     7.7   781.3    0.00 
  51    0:30   0.00   30.4    90    3.9    72     7.2   781.1    0.00 
  51    0:40   0.00   30.2    92    4.0    53     7.4   781.1    0.00 
  51    0:50   0.00   30.4    91    1.8   132     4.7   780.9    0.00 
  51    1:00   0.00   31.0    91    2.1    41     4.5   781.0    0.00 
  51    1:10   0.00   32.1    88    3.9   269     9.6   781.1    0.00 
  51    1:20   0.00   33.1    86    2.2   290     4.5   781.2    0.00 
  51    1:30   0.00   33.6    85    2.8   294     4.2   781.4    0.00 
  51    1:40   0.00   33.5    87    2.2   116     4.5   781.5    0.00 
  51    1:50   0.00   32.9    91    3.3   139     5.7   781.6    0.00 
  51    2:00   0.00   32.7    93    6.9   106    10.7   781.4    0.00 
  51    2:10   0.00   33.0    93   13.9   106    18.0   781.3    0.00 
  51    2:20   0.00   33.6    91   15.0   116    19.7   781.1    0.00 
  51    2:30   0.00   34.0    90    9.1   101    14.8   781.1    0.00 
  51    2:40   0.00   32.7    92    5.7    51     9.9   780.9    0.01 
  51    2:50   0.00   31.4    94    1.6   256     4.0   781.0    0.00 
  51    3:00   0.00   31.0    96    2.2   182     4.2   780.9    0.00 
  51    3:10   0.00   31.1    98    2.5   193     5.6   780.9    0.00 
  51    3:20   0.00   32.0    98    8.4    93    12.4   780.7    0.00 
  51    3:30   0.00   32.4    97    6.1    68    11.2   780.8    0.00 
  51    3:40   0.00   32.2    97    7.8    84    10.0   780.6    0.00 
  51    3:50   0.00   32.3    97    7.1    77    11.2   780.2    0.01 
  51    4:00   0.00   32.3    98    8.2    89    10.8   779.8    0.00 
  51    4:10   0.00   32.4    97    3.5    67     8.1   780.0    0.00 
  51    4:20   0.00   32.3    97    2.5     1     4.2   780.3    0.01 
  51    4:30   0.00   32.3    97    3.0   308     6.8   780.6    0.00 
  51    4:40   0.00   32.3    98    2.0   305     3.9   780.8    0.00 
  51    4:50   0.00   32.3    97    0.5   279     3.2   780.7    0.00 
  51    5:00   0.00   32.3    98    1.1    14     2.4   780.8    0.00 
  51    5:10   0.00   32.2    98    0.9   294     2.8   781.2    0.00 
  51    5:20   0.00   32.3    98    2.1   274     3.6   781.3    0.00 

Return to SNARL Reserve graphs page.


Western Regional Climate Center,wrcc@dri.edu